Time;durP1;ratioP1;P1;durP2;ratioP2;P2;SDS_P1;SDS_P2;PMS_P1;PMS_P2;Temp;Humidity;BMP_temperature;BMP_pressure;BME280_temperature;BME280_humidity;BME280_pressure;Samples;Min_cycle;Max_cycle;Signal;HPM_P1;HPM_P2
2022/01/27 00:01:10;;;;;;;10.57;4.97;;;4.30;99.90;3.40;100062;;;;544138;259;24277;-80
2022/01/27 00:03:47;;;;;;;15.40;5.63;;;4.20;99.90;3.40;100054;;;;554144;259;24173;-80
2022/01/27 00:06:08;;;;;;;11.67;5.00;;;4.30;99.90;3.40;100057;;;;543919;259;24254;-80
2022/01/27 00:08:40;;;;;;;11.30;5.73;;;4.20;99.90;3.40;100054;;;;545941;260;24163;-82
2022/01/27 00:11:07;;;;;;;15.70;6.07;;;4.30;99.90;3.40;100042;;;;545124;260;24156;-81
2022/01/27 00:13:32;;;;;;;15.73;5.63;;;4.30;99.90;3.40;100040;;;;546198;259;24219;-79
2022/01/27 00:16:10;;;;;;;13.80;5.43;;;4.30;99.90;3.40;100037;;;;535503;263;24278;-81
2022/01/27 00:18:30;;;;;;;15.43;6.60;;;4.30;99.90;3.40;100039;;;;530935;266;24187;-81
2022/01/27 00:20:54;;;;;;;11.23;5.70;;;4.30;99.90;3.40;100039;;;;527766;266;24217;-80
2022/01/27 00:23:22;;;;;;;21.33;6.63;;;4.30;99.90;3.40;100053;;;;532183;266;24215;-81
2022/01/27 00:25:54;;;;;;;15.67;6.37;;;4.30;99.90;3.40;100038;;;;543822;263;24183;-82
2022/01/27 00:28:19;;;;;;;17.93;6.37;;;4.30;99.90;3.40;100034;;;;548584;260;24146;-80
2022/01/27 00:30:46;;;;;;;24.30;7.53;;;4.30;99.90;3.40;100037;;;;545997;260;24153;-80
2022/01/27 00:33:19;;;;;;;9.60;4.83;;;4.30;99.90;3.40;100037;;;;545983;260;24213;-80
2022/01/27 00:35:43;;;;;;;24.20;6.37;;;4.30;99.90;3.40;100037;;;;545790;260;24161;-79
2022/01/27 00:38:11;;;;;;;13.30;6.17;;;4.30;99.90;3.40;100038;;;;553939;257;24158;-81
2022/01/27 00:40:39;;;;;;;17.77;6.20;;;4.30;99.90;3.40;100041;;;;545961;260;24141;-80
2022/01/27 00:43:07;;;;;;;18.67;7.80;;;4.30;99.90;3.40;100040;;;;553960;257;25191;-81
2022/01/27 00:45:35;;;;;;;25.50;9.77;;;4.30;99.90;3.40;100038;;;;546003;260;24190;-79
2022/01/27 00:48:04;;;;;;;13.90;6.50;;;4.30;99.90;3.40;100034;;;;553961;256;24178;-82
2022/01/27 00:50:32;;;;;;;17.50;7.20;;;4.40;99.90;3.50;100035;;;;546022;260;24156;-81
2022/01/27 00:53:01;;;;;;;15.47;6.67;;;4.40;99.90;3.50;100035;;;;540998;262;24163;-81
2022/01/27 00:55:29;;;;;;;22.87;8.00;;;4.40;99.90;3.50;100030;;;;540854;262;24172;-81
2022/01/27 00:58:13;;;;;;;21.17;7.30;;;4.40;99.90;3.50;100022;;;;543703;263;24262;-80
2022/01/27 01:00:37;;;;;;;25.80;9.63;;;4.40;99.90;3.50;100025;;;;547016;259;24149;-80
2022/01/27 01:03:04;;;;;;;18.97;7.97;;;4.40;99.90;3.50;100028;;;;549523;261;24176;-81
2022/01/27 01:08:02;;;;;;;25.97;7.47;;;4.50;99.90;3.60;100015;;;;545175;259;24175;-80
2022/01/27 01:15:29;;;;;;;21.97;7.67;;;4.50;99.90;3.60;99993;;;;541309;262;24147;-79
2022/01/27 01:33:45;;;;;;;18.43;8.00;;;4.50;99.90;3.60;99974;;;;548635;259;24180;-80
2022/01/27 01:36:16;;;;;;;14.37;6.40;;;4.50;99.90;3.60;99985;;;;548606;261;24163;-82
2022/01/27 01:38:41;;;;;;;19.03;7.70;;;4.50;99.90;3.60;99982;;;;535937;264;24170;-82
2022/01/27 01:41:09;;;;;;;21.53;8.03;;;4.50;99.90;3.60;99974;;;;536412;264;24279;-82
2022/01/27 01:43:38;;;;;;;25.43;10.67;;;4.50;99.90;3.60;99984;;;;533817;264;24202;-81
2022/01/27 01:46:06;;;;;;;16.47;7.40;;;4.50;99.90;3.60;99971;;;;545640;260;24180;-81
2022/01/27 01:48:34;;;;;;;29.20;9.13;;;4.50;99.90;3.60;99975;;;;543767;260;24150;-80
2022/01/27 01:51:05;;;;;;;16.57;7.53;;;4.50;99.90;3.60;99970;;;;542093;258;24170;-81
2022/01/27 01:53:36;;;;;;;16.20;6.57;;;4.50;99.90;3.60;99975;;;;545758;260;24160;-81
2022/01/27 01:56:04;;;;;;;15.70;6.93;;;4.50;99.90;3.60;99967;;;;540405;262;24158;-81
2022/01/27 01:58:28;;;;;;;15.20;7.27;;;4.50;99.90;3.60;99961;;;;534169;265;24212;-80
2022/01/27 02:00:56;;;;;;;29.53;10.50;;;4.50;99.90;3.60;99956;;;;557204;253;24149;-81
2022/01/27 02:03:24;;;;;;;21.40;7.20;;;4.50;99.90;3.60;99962;;;;543624;263;24231;-82
2022/01/27 02:05:55;;;;;;;18.83;7.70;;;4.50;99.90;3.60;99956;;;;545723;260;24164;-81
2022/01/27 02:19:18;;;;;;;21.23;6.30;;;4.60;99.90;3.70;99961;;;;539486;257;24139;-80
2022/01/27 02:21:53;;;;;;;11.17;5.63;;;4.60;99.90;3.60;99951;;;;553371;253;24205;-81
2022/01/27 02:24:23;;;;;;;15.80;6.13;;;4.60;99.90;3.60;99945;;;;565818;251;24121;-81
2022/01/27 02:26:49;;;;;;;17.27;6.17;;;4.60;99.90;3.60;99952;;;;539755;263;25221;-80
2022/01/27 02:29:18;;;;;;;19.53;6.13;;;4.60;99.90;3.60;99940;;;;532397;266;24192;-82
2022/01/27 02:31:46;;;;;;;14.37;6.17;;;4.60;99.90;3.60;99934;;;;553879;259;24195;-81
2022/01/27 02:34:14;;;;;;;12.90;4.00;;;4.60;99.90;3.70;99931;;;;537072;264;24200;-81
2022/01/27 02:36:43;;;;;;;14.83;6.37;;;4.60;99.90;3.70;99929;;;;534447;264;24168;-80
2022/01/27 02:39:14;;;;;;;23.43;8.13;;;4.60;99.90;3.70;99935;;;;544784;257;24178;-81
2022/01/27 02:41:41;;;;;;;13.73;6.23;;;4.60;99.90;3.70;99929;;;;545933;260;24156;-81
2022/01/27 02:44:09;;;;;;;22.03;7.20;;;4.60;99.90;3.70;99923;;;;554154;259;24157;-81
2022/01/27 02:46:43;;;;;;;16.13;6.50;;;4.70;99.90;3.70;99931;;;;544284;264;24254;-81
2022/01/27 02:49:14;;;;;;;14.47;5.63;;;4.70;99.90;3.70;99919;;;;546079;260;24185;-81
2022/01/27 02:51:38;;;;;;;15.40;6.43;;;4.70;99.90;3.70;99915;;;;544504;264;24183;-79
2022/01/27 02:54:10;;;;;;;17.83;7.63;;;4.70;99.90;3.70;99913;;;;546034;260;24180;-81
2022/01/27 02:56:38;;;;;;;15.13;6.27;;;4.70;99.90;3.80;99905;;;;543884;260;24179;-81
2022/01/27 02:59:04;;;;;;;18.33;6.77;;;4.70;99.90;3.80;99908;;;;543120;264;24182;-81
2022/01/27 03:01:32;;;;;;;17.83;6.07;;;4.70;99.90;3.80;99895;;;;553551;258;24288;-81
2022/01/27 03:04:01;;;;;;;12.90;6.57;;;4.70;99.90;3.80;99890;;;;553749;256;24153;-82
2022/01/27 03:06:29;;;;;;;17.23;7.07;;;4.70;99.90;3.80;99886;;;;545678;260;24157;-82
2022/01/27 03:08:57;;;;;;;15.90;7.50;;;4.80;99.90;3.80;99877;;;;540692;262;24281;-80
2022/01/27 03:11:55;;;;;;;23.00;7.07;;;4.80;99.90;3.80;99872;;;;543725;263;25277;-81
2022/01/27 03:14:23;;;;;;;22.73;7.30;;;4.80;99.90;3.80;99870;;;;543512;260;24230;-81
2022/01/27 03:16:50;;;;;;;18.00;6.17;;;4.80;99.90;3.80;99867;;;;540597;259;24203;-80
2022/01/27 03:19:18;;;;;;;13.07;6.70;;;4.80;99.90;3.80;99875;;;;543501;264;24184;-79
2022/01/27 03:21:46;;;;;;;19.50;8.20;;;4.80;99.90;3.80;99833;;;;545678;260;24184;-81
2022/01/27 03:24:14;;;;;;;19.17;7.50;;;4.80;99.90;3.80;99846;;;;554595;257;24172;-80
2022/01/27 03:26:43;;;;;;;16.70;7.37;;;4.80;99.90;3.80;99848;;;;546695;259;24154;-81
2022/01/27 03:29:10;;;;;;;19.70;7.93;;;4.80;99.90;3.80;99842;;;;554380;256;24214;-81
2022/01/27 03:31:38;;;;;;;16.10;7.87;;;4.80;99.90;3.80;99840;;;;546717;259;24227;-81
2022/01/27 03:34:06;;;;;;;20.33;7.60;;;4.80;99.90;3.80;99841;;;;554610;258;24179;-81
2022/01/27 03:36:34;;;;;;;22.50;7.77;;;4.80;99.90;3.80;99830;;;;546674;259;24159;-80
2022/01/27 03:39:02;;;;;;;17.83;8.30;;;4.80;99.90;3.80;99828;;;;554911;257;24143;-80
2022/01/27 03:41:33;;;;;;;18.37;7.70;;;4.80;99.90;3.80;99821;;;;545651;260;24151;-79
2022/01/27 03:43:57;;;;;;;19.33;7.93;;;4.80;99.90;3.80;99821;;;;554881;258;24209;-80
2022/01/27 03:46:25;;;;;;;16.67;8.00;;;4.80;99.90;3.80;99813;;;;546725;260;24144;-82
2022/01/27 03:48:57;;;;;;;14.43;6.63;;;4.80;99.90;3.80;99811;;;;554500;257;24145;-80
2022/01/27 03:51:21;;;;;;;19.50;9.13;;;4.80;99.90;3.80;99813;;;;544305;260;24216;-81
2022/01/27 03:53:50;;;;;;;14.70;6.80;;;4.80;99.90;3.80;99820;;;;554414;258;24153;-81
2022/01/27 03:56:18;;;;;;;15.67;7.93;;;4.70;99.90;3.80;99803;;;;546249;260;24176;-80
2022/01/27 03:58:46;;;;;;;14.67;6.63;;;4.70;99.90;3.80;99793;;;;554206;257;24152;-81
2022/01/27 04:01:17;;;;;;;14.80;7.50;;;4.70;99.90;3.80;99781;;;;545850;260;24170;-80
2022/01/27 04:03:43;;;;;;;19.87;7.73;;;4.70;99.90;3.80;99788;;;;548795;262;24148;-81
2022/01/27 04:06:10;;;;;;;16.90;7.77;;;4.70;99.90;3.80;99772;;;;544013;263;24170;-81
2022/01/27 04:08:37;;;;;;;16.30;6.53;;;4.70;99.90;3.80;99774;;;;546044;260;24223;-81
2022/01/27 04:11:05;;;;;;;18.37;8.27;;;4.70;99.90;3.80;99777;;;;554040;259;24182;-82
2022/01/27 04:13:33;;;;;;;21.23;7.63;;;4.70;99.90;3.80;99767;;;;546114;260;24223;-81
2022/01/27 04:16:01;;;;;;;13.90;6.70;;;4.80;99.90;3.80;99766;;;;542384;257;24160;-80
2022/01/27 04:18:29;;;;;;;16.63;7.47;;;4.70;99.90;3.80;99760;;;;546090;260;24188;-82
2022/01/27 04:20:57;;;;;;;12.60;7.33;;;4.80;99.90;3.80;99749;;;;553949;258;24206;-81
2022/01/27 04:23:25;;;;;;;14.37;7.93;;;4.80;99.90;3.80;99749;;;;535653;264;24174;-82
2022/01/27 04:25:57;;;;;;;20.07;9.10;;;4.80;99.90;3.80;99743;;;;554025;257;24167;-80
2022/01/27 04:28:27;;;;;;;16.20;7.80;;;4.80;99.90;3.80;99745;;;;553825;259;25200;-80
2022/01/27 04:30:53;;;;;;;20.60;8.23;;;4.80;99.90;3.90;99752;;;;553969;256;24196;-81
2022/01/27 04:33:22;;;;;;;16.97;7.47;;;4.80;99.90;3.90;99749;;;;545792;260;24182;-81
2022/01/27 04:35:48;;;;;;;15.53;7.43;;;4.80;99.90;3.90;99733;;;;542690;262;24156;-80
2022/01/27 04:48:23;;;;;;;11.03;6.20;;;4.90;99.90;3.90;99735;;;;541401;262;24190;-80
2022/01/27 04:50:51;;;;;;;13.20;8.13;;;4.90;99.90;4.00;99736;;;;543933;264;24204;-81
2022/01/27 04:53:27;;;;;;;15.60;8.40;;;4.90;99.90;4.00;99729;;;;554177;259;24148;-82
2022/01/27 04:55:45;;;;;;;14.40;6.93;;;4.90;99.90;4.00;99738;;;;548866;261;24174;-81
2022/01/27 04:58:18;;;;;;;12.20;6.33;;;4.90;99.90;4.00;99732;;;;544359;263;24233;-80
2022/01/27 05:00:42;;;;;;;12.40;6.43;;;5.00;99.90;4.00;99739;;;;545998;259;24160;-81
2022/01/27 05:03:20;;;;;;;12.67;6.77;;;4.90;99.90;4.00;99730;;;;553812;258;24166;-81
2022/01/27 05:05:40;;;;;;;15.43;8.10;;;4.90;99.90;4.00;99727;;;;544166;260;24312;-81
2022/01/27 05:08:15;;;;;;;14.57;7.97;;;4.90;99.90;4.00;99729;;;;554211;258;24167;-80
2022/01/27 05:10:36;;;;;;;18.07;8.10;;;5.00;99.90;4.00;99719;;;;546155;260;24151;-80
2022/01/27 05:13:11;;;;;;;13.03;7.43;;;4.90;99.90;4.00;99703;;;;553981;257;24167;-80
2022/01/27 05:15:42;;;;;;;13.43;6.50;;;4.90;99.90;3.90;99703;;;;546165;260;24148;-80
2022/01/27 05:18:02;;;;;;;17.30;8.40;;;4.80;99.90;3.90;99706;;;;554050;258;24159;-81
2022/01/27 05:20:30;;;;;;;12.03;7.37;;;4.80;99.90;3.80;99691;;;;546023;260;24190;-80
2022/01/27 05:22:59;;;;;;;13.43;8.10;;;4.70;99.90;3.80;99699;;;;553966;258;25201;-80
2022/01/27 05:25:27;;;;;;;15.27;7.87;;;4.70;99.90;3.70;99682;;;;545972;260;24165;-81
2022/01/27 05:27:55;;;;;;;16.33;8.40;;;4.60;99.90;3.70;99682;;;;553987;258;24212;-82
2022/01/27 05:30:23;;;;;;;17.00;7.67;;;4.60;99.90;3.60;99683;;;;546003;260;24133;-80
2022/01/27 05:32:51;;;;;;;12.10;5.93;;;4.50;99.90;3.60;99697;;;;553533;258;24211;-81
2022/01/27 05:35:19;;;;;;;13.37;7.03;;;4.50;99.90;3.60;99693;;;;545691;260;24138;-82
2022/01/27 05:37:49;;;;;;;14.87;9.00;;;4.40;99.90;3.50;99683;;;;540692;262;24169;-80
2022/01/27 05:40:18;;;;;;;15.80;8.07;;;4.40;99.90;3.50;99686;;;;543397;264;24199;-80
2022/01/27 05:42:42;;;;;;;13.43;7.23;;;4.40;99.90;3.40;99681;;;;535075;264;24197;-81
2022/01/27 05:45:14;;;;;;;13.33;7.30;;;4.30;99.90;3.40;99690;;;;545947;260;24141;-81
2022/01/27 05:47:38;;;;;;;15.57;8.10;;;4.30;99.90;3.40;99686;;;;553843;258;24147;-81
2022/01/27 05:50:10;;;;;;;14.13;7.90;;;4.30;99.90;3.40;99680;;;;554565;257;24163;-81
2022/01/27 05:52:34;;;;;;;20.67;9.57;;;4.30;99.90;3.40;99675;;;;546276;259;24162;-81
2022/01/27 05:55:02;;;;;;;27.80;12.37;;;4.20;99.90;3.40;99670;;;;554281;257;24235;-81
2022/01/27 05:57:30;;;;;;;19.77;8.67;;;4.20;99.90;3.30;99672;;;;554227;259;24244;-79
2022/01/27 05:59:58;;;;;;;18.03;9.43;;;4.20;99.90;3.30;99661;;;;554056;258;24161;-80
2022/01/27 06:02:26;;;;;;;18.87;9.03;;;4.20;99.90;3.30;99652;;;;546001;259;24162;-81
2022/01/27 06:04:54;;;;;;;18.50;8.83;;;4.20;99.90;3.30;99652;;;;540985;262;24157;-81
2022/01/27 06:07:22;;;;;;;20.90;10.03;;;4.20;99.90;3.30;99633;;;;543922;263;24168;-80
2022/01/27 06:09:50;;;;;;;23.17;9.73;;;4.20;99.90;3.30;99623;;;;544022;263;24165;-80
2022/01/27 06:12:18;;;;;;;22.30;10.43;;;4.10;99.90;3.20;99615;;;;545962;260;24173;-80
2022/01/27 06:14:46;;;;;;;18.37;8.23;;;4.10;99.90;3.30;99614;;;;549278;261;24161;-79
2022/01/27 06:17:14;;;;;;;19.33;8.63;;;4.20;99.90;3.20;99603;;;;544101;263;24196;-80
2022/01/27 06:19:44;;;;;;;15.03;8.17;;;4.10;99.90;3.30;99598;;;;545810;260;24152;-80
2022/01/27 06:22:11;;;;;;;14.33;6.97;;;4.20;99.90;3.20;99597;;;;545950;256;24164;-80
2022/01/27 06:24:44;;;;;;;16.77;8.23;;;4.20;99.90;3.30;99601;;;;548519;260;24228;-80
2022/01/27 06:27:12;;;;;;;15.43;7.93;;;4.10;99.90;3.30;99598;;;;545796;260;24157;-80
2022/01/27 06:29:41;;;;;;;16.80;8.33;;;4.10;99.90;3.20;99594;;;;532382;262;24214;-80
2022/01/27 06:32:09;;;;;;;17.17;7.83;;;4.10;99.90;3.20;99591;;;;545821;260;24135;-81
2022/01/27 06:34:37;;;;;;;16.80;8.50;;;4.20;99.90;3.20;99580;;;;546019;260;24152;-80
2022/01/27 06:37:05;;;;;;;19.70;8.10;;;4.10;99.90;3.20;99571;;;;554053;258;24147;-81
2022/01/27 06:39:33;;;;;;;20.13;8.83;;;4.10;99.90;3.20;99565;;;;545992;260;24145;-81
2022/01/27 06:42:02;;;;;;;15.90;7.90;;;4.10;99.90;3.20;99560;;;;545965;260;24184;-82
2022/01/27 06:44:29;;;;;;;17.40;8.63;;;4.20;99.90;3.30;99565;;;;545974;260;24141;-82
2022/01/27 06:47:00;;;;;;;16.40;9.00;;;4.10;99.90;3.20;99562;;;;553979;258;24202;-81
2022/01/27 06:49:25;;;;;;;14.10;8.37;;;4.10;99.90;3.30;99561;;;;545958;258;24258;-81
2022/01/27 06:51:53;;;;;;;17.83;8.63;;;4.20;99.90;3.20;99549;;;;545949;260;24197;-81
2022/01/27 06:54:21;;;;;;;14.47;6.47;;;4.20;99.90;3.20;99544;;;;553953;258;24183;-81
2022/01/27 06:56:49;;;;;;;13.77;6.87;;;4.10;99.90;3.20;99532;;;;546020;260;24133;-80
2022/01/27 06:59:16;;;;;;;14.17;7.03;;;4.10;99.90;3.10;99523;;;;555154;257;24250;-80
2022/01/27 07:01:44;;;;;;;19.70;8.23;;;4.10;99.90;3.10;99522;;;;546729;259;24159;-79
2022/01/27 07:04:12;;;;;;;17.07;7.00;;;4.00;99.90;3.10;99518;;;;554376;257;24186;-80
2022/01/27 07:06:40;;;;;;;15.93;6.73;;;4.00;99.90;3.10;99514;;;;546256;259;24156;-80
2022/01/27 07:09:08;;;;;;;15.67;7.33;;;4.00;99.90;3.10;99502;;;;554487;257;24151;-81
2022/01/27 07:11:36;;;;;;;17.10;6.73;;;4.00;99.90;3.10;99493;;;;546444;259;24146;-81
2022/01/27 07:14:04;;;;;;;15.87;6.70;;;4.10;99.90;3.10;99488;;;;554471;257;24191;-79
2022/01/27 07:16:33;;;;;;;13.17;6.40;;;4.00;99.90;3.10;99489;;;;546321;260;24177;-81
2022/01/27 07:19:03;;;;;;;16.70;7.77;;;4.10;99.90;3.10;99469;;;;554193;258;24155;-81
2022/01/27 07:21:28;;;;;;;13.90;6.83;;;4.10;99.90;3.10;99470;;;;540948;262;24160;-80
2022/01/27 07:23:56;;;;;;;12.33;6.33;;;4.00;99.90;3.00;99469;;;;544334;263;24181;-80
2022/01/27 07:26:27;;;;;;;15.50;6.67;;;4.00;99.90;3.10;99460;;;;546455;260;24216;-80
2022/01/27 07:28:55;;;;;;;13.17;5.80;;;4.00;99.90;3.00;99462;;;;541148;262;24206;-81
2022/01/27 07:31:19;;;;;;;15.77;7.13;;;3.90;99.90;3.00;99455;;;;541058;264;24186;-80
2022/01/27 07:33:51;;;;;;;13.20;6.93;;;3.90;99.90;3.00;99457;;;;554278;257;24155;-79
2022/01/27 07:36:17;;;;;;;11.30;4.80;;;3.90;99.90;3.00;99449;;;;539683;264;24162;-80
2022/01/27 07:38:46;;;;;;;11.50;6.07;;;3.90;99.90;3.00;99453;;;;545744;260;24194;-80
2022/01/27 07:41:20;;;;;;;5.47;3.80;;;3.90;99.90;3.00;99445;;;;539413;264;25241;-81
2022/01/27 07:43:44;;;;;;;9.90;5.80;;;3.90;99.90;3.00;99447;;;;539234;266;24198;-81
2022/01/27 07:46:13;;;;;;;12.47;5.83;;;3.90;99.90;3.00;99434;;;;543688;263;24190;-81
2022/01/27 07:48:43;;;;;;;9.10;5.03;;;3.90;99.90;3.00;99435;;;;546222;260;24175;-81
2022/01/27 07:51:14;;;;;;;12.00;4.80;;;3.90;99.90;3.00;99433;;;;553298;257;24222;-80
2022/01/27 07:53:42;;;;;;;9.70;4.57;;;3.90;99.90;3.10;99428;;;;552622;260;24179;-80
2022/01/27 07:56:07;;;;;;;10.73;5.17;;;4.00;99.90;3.10;99410;;;;542097;259;24266;-80
2022/01/27 07:58:45;;;;;;;12.63;5.13;;;4.00;99.90;3.10;99416;;;;553607;258;24142;-80
2022/01/27 08:01:03;;;;;;;12.63;5.47;;;4.00;99.90;3.10;99417;;;;543300;260;24204;-81
2022/01/27 08:03:31;;;;;;;8.37;4.00;;;4.00;99.90;3.10;99411;;;;553861;256;24159;-79
2022/01/27 08:05:59;;;;;;;12.00;5.73;;;4.10;99.90;3.10;99401;;;;545981;260;24161;-79
2022/01/27 08:08:27;;;;;;;9.53;4.77;;;4.10;99.90;3.10;99396;;;;554061;258;24163;-78
2022/01/27 08:10:56;;;;;;;7.77;4.50;;;4.10;99.90;3.10;99395;;;;555154;257;24178;-79
2022/01/27 08:13:27;;;;;;;5.13;2.83;;;4.00;99.90;3.00;99400;;;;554976;257;24203;-80
2022/01/27 08:15:55;;;;;;;8.83;4.13;;;4.00;99.90;3.00;99386;;;;554279;259;24171;-80
2022/01/27 08:18:23;;;;;;;5.70;3.27;;;4.00;99.90;3.10;99384;;;;549183;261;24161;-80
2022/01/27 08:20:49;;;;;;;6.87;3.37;;;4.00;99.90;3.10;99377;;;;544055;264;24174;-81
2022/01/27 08:23:15;;;;;;;8.10;3.57;;;4.00;99.90;3.20;99373;;;;546113;259;24164;-81
2022/01/27 08:25:48;;;;;;;5.30;3.80;;;4.10;99.90;3.30;99365;;;;540975;262;24244;-81
2022/01/27 08:28:21;;;;;;;5.23;3.23;;;4.20;99.90;3.30;99378;;;;543691;264;24199;-81
2022/01/27 08:30:45;;;;;;;5.00;3.30;;;4.20;99.90;3.30;99353;;;;546282;260;24145;-81
2022/01/27 08:33:14;;;;;;;3.90;2.77;;;4.30;99.90;3.30;99345;;;;545878;260;24144;-81
2022/01/27 08:35:40;;;;;;;5.83;2.77;;;4.20;99.90;3.30;99334;;;;546358;259;24153;-81
2022/01/27 08:38:06;;;;;;;8.77;3.27;;;4.30;99.90;3.30;99325;;;;548786;261;24206;-80
2022/01/27 08:40:31;;;;;;;9.07;2.57;;;4.20;99.90;3.30;99331;;;;549094;261;24222;-80
2022/01/27 08:43:00;;;;;;;6.25;3.85;;;4.20;99.90;3.30;99320;;;;539483;263;35822;-82
2022/01/27 08:45:28;;;;;;;5.55;3.47;;;4.20;99.90;3.20;99310;;;;541381;259;35598;-80
2022/01/27 08:47:58;;;;;;;4.03;2.40;;;4.20;99.90;3.20;99306;;;;554113;258;24162;-81
2022/01/27 08:50:25;;;;;;;2.30;2.07;;;4.20;99.90;3.30;99305;;;;553131;260;24192;-82
2022/01/27 08:52:52;;;;;;;3.60;2.00;;;4.20;99.90;3.30;99297;;;;540753;262;24158;-81
2022/01/27 08:55:21;;;;;;;2.87;1.60;;;4.20;99.90;3.30;99290;;;;536380;264;24256;-81
2022/01/27 08:57:52;;;;;;;3.03;1.53;;;4.20;99.90;3.20;99286;;;;546001;260;24153;-82
2022/01/27 09:00:19;;;;;;;1.97;1.87;;;4.20;99.90;3.30;99280;;;;533988;262;24209;-81
2022/01/27 09:02:44;;;;;;;2.42;2.22;;;4.20;99.90;3.50;99266;;;;548456;259;35582;-81
2022/01/27 09:05:15;;;;;;;2.63;1.60;;;4.30;99.90;3.60;99274;;;;545614;260;24174;-81
2022/01/27 09:07:43;;;;;;;1.70;1.57;;;4.50;99.90;3.70;99277;;;;553667;258;24174;-82
2022/01/27 09:10:11;;;;;;;1.43;1.33;;;4.60;99.90;3.70;99272;;;;545535;260;24158;-81
2022/01/27 09:16:25;;;;;;;1.10;1.10;;;4.60;99.90;3.60;99262;;;;553150;258;24196;-82
2022/01/27 09:18:50;;;;;;;1.87;1.03;;;4.50;99.90;3.60;99253;;;;536008;264;24180;-81
2022/01/27 09:21:22;;;;;;;1.07;1.07;;;4.50;99.90;3.60;99252;;;;541256;261;24171;-81
2022/01/27 09:23:48;;;;;;;2.63;1.10;;;4.50;99.90;3.50;99239;;;;544698;263;24241;-82
2022/01/27 09:26:38;;;;;;;1.10;1.00;;;4.50;99.90;3.50;99236;;;;554372;259;24145;-81
2022/01/27 09:28:43;;;;;;;1.00;1.00;;;4.50;99.90;3.50;99230;;;;546646;262;24161;-81
2022/01/27 09:31:11;;;;;;;0.97;0.87;;;4.50;99.90;3.60;99222;;;;544243;263;24189;-80
2022/01/27 09:33:39;;;;;;;4.77;1.20;;;4.60;99.90;3.70;99218;;;;547806;261;24144;-81
2022/01/27 09:36:11;;;;;;;0.90;0.90;;;4.60;99.90;3.80;99214;;;;544253;264;24189;-84
2022/01/27 09:38:35;;;;;;;1.40;1.27;;;4.70;99.90;4.00;99209;;;;546462;259;24175;-81
2022/01/27 09:41:07;;;;;;;1.37;1.27;;;4.80;99.90;4.10;99193;;;;554176;258;24144;-81
2022/01/27 09:43:31;;;;;;;0.77;0.77;;;5.00;99.90;4.20;99199;;;;543237;260;24227;-81
2022/01/27 09:46:03;;;;;;;1.03;0.93;;;5.30;99.90;4.40;99194;;;;549173;260;24180;-81
2022/01/27 09:48:32;;;;;;;1.17;0.90;;;5.30;99.90;4.60;99192;;;;544143;264;24180;-82
2022/01/27 09:51:23;;;;;;;0.83;0.83;;;5.60;99.90;4.70;99182;;;;545896;260;24195;-81
2022/01/27 09:53:31;;;;;;;1.17;1.07;;;5.70;99.90;4.80;99183;;;;531540;264;24215;-82
2022/01/27 09:55:59;;;;;;;1.10;1.00;;;5.70;99.90;4.80;99163;;;;554163;259;24144;-80
2022/01/27 09:58:27;;;;;;;1.50;1.40;;;5.70;99.90;4.80;99175;;;;542976;260;35604;-82
2022/01/27 10:00:55;;;;;;;4.10;1.80;;;5.70;99.90;4.80;99163;;;;539202;263;35748;-81
2022/01/27 10:03:26;;;;;;;1.60;1.50;;;5.70;99.90;4.70;99158;;;;535980;262;35684;-83
2022/01/27 10:05:51;;;;;;;0.80;0.80;;;5.70;99.90;4.70;99165;;;;548501;259;24158;-81
2022/01/27 10:08:22;;;;;;;2.00;0.93;;;5.70;99.90;4.80;99149;;;;542943;260;24163;-82
2022/01/27 10:10:47;;;;;;;2.17;0.80;;;5.80;99.90;4.80;99156;;;;564332;253;24133;-82
2022/01/27 10:13:35;;;;;;;1.20;1.10;;;5.70;99.90;4.90;99140;;;;553529;258;24188;-81
2022/01/27 10:16:01;;;;;;;1.07;0.90;;;5.80;99.90;4.90;99140;;;;532309;261;24232;-82
2022/01/27 10:18:35;;;;;;;1.70;1.00;;;5.80;99.90;4.90;99142;;;;545308;260;24197;-82
2022/01/27 10:21:06;;;;;;;1.00;1.00;;;5.80;99.90;4.90;99144;;;;546005;260;24178;-80
2022/01/27 10:23:38;;;;;;;0.60;0.60;;;5.80;99.90;4.80;99145;;;;545454;260;24214;-82
2022/01/27 10:26:13;;;;;;;0.73;0.73;;;5.80;99.90;4.60;99135;;;;547454;262;24206;-81
2022/01/27 10:31:16;;;;;;;0.87;0.80;;;5.50;99.90;4.40;99137;;;;540673;264;24195;-82
2022/01/27 10:33:42;;;;;;;2.83;0.67;;;5.30;99.90;4.40;99125;;;;546508;259;24152;-80
2022/01/27 10:36:25;;;;;;;0.80;0.80;;;5.30;99.90;4.30;99136;;;;542450;259;24159;-82
2022/01/27 10:38:58;;;;;;;0.77;0.77;;;5.20;99.90;4.30;99116;;;;554668;259;24159;-82
2022/01/27 10:41:27;;;;;;;0.90;0.90;;;5.20;99.90;4.20;99117;;;;546638;259;24263;-80
2022/01/27 10:43:52;;;;;;;0.63;0.63;;;5.20;99.90;4.20;99113;;;;533197;264;24204;-80
2022/01/27 10:46:28;;;;;;;0.50;0.50;;;5.10;99.90;4.20;99105;;;;540411;259;24163;-81
2022/01/27 10:48:58;;;;;;;0.60;0.60;;;5.10;99.90;4.20;99107;;;;547980;262;24216;-81
2022/01/27 10:51:25;;;;;;;0.93;0.93;;;5.10;99.90;4.10;99099;;;;543881;261;24205;-81
2022/01/27 10:54:08;;;;;;;2.47;0.90;;;5.00;99.90;4.10;99092;;;;541551;259;24277;-82
2022/01/27 10:56:33;;;;;;;1.30;1.00;;;5.00;99.90;4.10;99097;;;;546040;260;24219;-81
2022/01/27 10:59:01;;;;;;;0.97;0.97;;;5.00;99.90;4.20;99089;;;;553737;259;24167;-80
2022/01/27 11:01:33;;;;;;;0.77;0.77;;;5.10;99.90;4.30;99091;;;;545684;260;24168;-81
2022/01/27 11:04:00;;;;;;;1.17;1.07;;;5.10;99.90;4.30;99072;;;;553399;259;24179;-82
2022/01/27 11:06:33;;;;;;;0.83;0.83;;;5.20;99.90;4.30;99087;;;;548849;261;24224;-81
2022/01/27 11:09:00;;;;;;;0.97;0.97;;;5.20;99.90;4.40;99067;;;;542949;264;24191;-81
2022/01/27 11:11:25;;;;;;;0.80;0.80;;;5.30;99.90;4.50;99069;;;;545657;260;24196;-82
2022/01/27 11:13:52;;;;;;;1.70;0.70;;;5.30;99.90;4.70;99062;;;;545259;260;24144;-81
2022/01/27 11:16:24;;;;;;;5.00;1.30;;;5.50;99.90;4.80;99044;;;;548642;260;24190;-81
2022/01/27 11:18:48;;;;;;;0.53;0.53;;;5.60;99.90;5.00;99043;;;;534942;264;24213;-80
2022/01/27 11:21:34;;;;;;;0.83;0.80;;;5.90;99.90;5.10;99054;;;;531860;266;24234;-80
2022/01/27 11:24:14;;;;;;;1.17;1.00;;;6.00;99.90;5.10;99048;;;;544840;263;24172;-81
2022/01/27 11:26:37;;;;;;;0.73;0.73;;;5.90;99.90;5.10;99032;;;;532314;266;24253;-81
2022/01/27 11:29:02;;;;;;;0.80;0.80;;;6.00;99.90;5.00;99031;;;;543739;264;24275;-82
2022/01/27 11:32:09;;;;;;;0.80;0.80;;;5.90;99.90;4.90;99033;;;;553079;259;24155;-81
2022/01/27 11:34:56;;;;;;;0.90;0.90;;;5.70;99.90;4.80;99023;;;;532505;261;24184;-82
2022/01/27 11:37:33;;;;;;;1.10;1.10;;;5.70;99.90;4.80;99027;;;;544413;260;24200;-80
2022/01/27 11:40:02;;;;;;;1.13;0.77;;;5.70;99.90;4.70;99018;;;;545346;260;24192;-80
2022/01/27 11:42:37;;;;;;;0.87;0.83;;;5.60;99.90;4.70;99010;;;;553212;259;24221;-82
2022/01/27 11:45:22;;;;;;;2.33;1.17;;;5.60;99.90;4.70;99019;;;;553758;257;24185;-83
2022/01/27 11:47:56;;;;;;;1.17;1.07;;;5.60;99.90;4.60;98999;;;;537207;259;24216;-82
2022/01/27 11:50:33;;;;;;;2.37;1.00;;;5.50;99.90;4.70;99004;;;;545247;263;24207;-80
2022/01/27 11:53:07;;;;;;;1.00;1.00;;;5.50;99.90;4.70;98998;;;;532688;266;24259;-82
2022/01/27 11:55:35;;;;;;;3.30;0.80;;;5.50;99.90;4.60;98981;;;;544266;263;24209;-80
2022/01/27 11:58:21;;;;;;;0.77;0.77;;;5.50;99.90;4.60;98978;;;;553468;257;24179;-82
2022/01/27 12:01:06;;;;;;;2.80;0.90;;;5.50;99.90;4.60;98987;;;;541179;262;24226;-81
2022/01/27 12:03:33;;;;;;;2.57;1.37;;;5.50;99.90;4.70;98975;;;;543424;264;24228;-87
2022/01/27 12:06:15;;;;;;;0.70;0.70;;;5.50;99.90;4.90;98977;;;;540869;262;24175;-84
2022/01/27 12:08:43;;;;;;;1.30;0.90;;;5.70;99.90;5.00;98982;;;;543769;263;24191;-83
2022/01/27 12:11:44;;;;;;;0.90;0.90;;;5.80;99.90;5.10;98964;;;;548831;260;24149;-82
2022/01/27 12:14:08;;;;;;;1.00;1.00;;;5.90;99.90;5.20;98956;;;;553831;259;24195;-82
2022/01/27 12:16:51;;;;;;;1.30;1.20;;;6.10;99.90;5.20;98962;;;;544449;260;24143;-81
2022/01/27 12:19:11;;;;;;;0.90;0.90;;;6.10;99.90;5.30;98957;;;;547199;262;25253;-81
2022/01/27 12:22:00;;;;;;;1.13;0.93;;;6.10;99.90;5.30;98949;;;;548072;259;24197;-82
2022/01/27 12:24:30;;;;;;;0.87;0.80;;;6.20;99.90;5.40;98943;;;;543358;264;24175;-81
2022/01/27 12:27:07;;;;;;;0.87;0.87;;;6.20;99.90;5.40;98944;;;;544257;260;24217;-82